Time;durP1;ratioP1;P1;durP2;ratioP2;P2;SDS_P1;SDS_P2;PMS_P1;PMS_P2;Temp;Humidity;BMP_temperature;BMP_pressure;BME280_temperature;BME280_humidity;BME280_pressure;Samples;Min_cycle;Max_cycle;Signal;HPM_P1;HPM_P2
2021/10/14 00:01:11;;;;;;;0.60;0.60;;;;;;;8.58;100.00;101449.53;5093820;28;20687;-72
2021/10/14 00:03:36;;;;;;;0.87;0.77;;;;;;;8.58;100.00;101451.44;5093164;28;20201;-72
2021/10/14 00:06:02;;;;;;;0.83;0.83;;;;;;;8.61;100.00;101451.69;5074711;28;20644;-72
2021/10/14 00:08:27;;;;;;;1.40;1.17;;;;;;;8.62;100.00;101466.94;5093144;28;20184;-72
2021/10/14 00:10:52;;;;;;;1.47;0.83;;;;;;;8.61;100.00;101459.88;5086362;28;20616;-72
2021/10/14 00:13:19;;;;;;;0.87;0.77;;;;;;;8.61;100.00;101448.97;5075335;28;20256;-72
2021/10/14 00:15:44;;;;;;;0.70;0.70;;;;;;;8.61;100.00;101448.97;5093647;28;20177;-72
2021/10/14 00:18:10;;;;;;;1.53;0.73;;;;;;;8.61;100.00;101451.69;5092691;28;20537;-72
2021/10/14 00:20:35;;;;;;;2.50;1.50;;;;;;;8.60;100.00;101443.81;5093364;28;20193;-72
2021/10/14 00:23:00;;;;;;;3.63;1.53;;;;;;;8.62;100.00;101445.16;5093460;28;20597;-72
2021/10/14 00:25:26;;;;;;;1.67;1.23;;;;;;;8.62;100.00;101447.06;5093227;28;20178;-72
2021/10/14 00:27:52;;;;;;;3.90;0.83;;;;;;;8.63;100.00;101451.41;5093192;28;20180;-72
2021/10/14 00:30:19;;;;;;;1.20;1.10;;;;;;;8.63;100.00;101444.06;5093552;28;20215;-72
2021/10/14 00:32:45;;;;;;;1.50;0.87;;;;;;;8.66;100.00;101445.41;5074994;28;20182;-72
2021/10/14 00:35:10;;;;;;;1.10;1.00;;;;;;;8.68;100.00;101453.31;5092964;28;20181;-72
2021/10/14 00:37:36;;;;;;;1.27;1.17;;;;;;;8.70;100.00;101434.81;5093163;28;20174;-72
2021/10/14 00:40:03;;;;;;;1.33;0.87;;;;;;;8.71;100.00;101437.25;5093247;28;20205;-72
2021/10/14 00:42:28;;;;;;;1.03;0.97;;;;;;;8.72;100.00;101435.34;5072745;28;20304;-72
2021/10/14 00:44:55;;;;;;;1.30;1.20;;;;;;;8.73;100.00;101434.25;5072658;28;20245;-72
2021/10/14 00:47:23;;;;;;;0.83;0.83;;;;;;;8.72;100.00;101438.88;5072723;28;20182;-72
2021/10/14 00:49:49;;;;;;;1.40;1.30;;;;;;;8.73;100.00;101437.78;5072634;28;20179;-72
2021/10/14 00:52:15;;;;;;;1.00;0.90;;;;;;;8.73;100.00;101431.53;5054375;28;20178;-72
2021/10/14 00:54:41;;;;;;;0.93;0.90;;;;;;;8.73;100.00;101426.91;5072392;28;20701;-72
2021/10/14 00:57:07;;;;;;;1.20;1.20;;;;;;;8.73;100.00;101432.34;5072570;28;20261;-72
2021/10/14 00:59:34;;;;;;;0.70;0.63;;;;;;;8.73;100.00;101426.91;5054122;28;20596;-71
2021/10/14 01:02:00;;;;;;;1.23;0.90;;;;;;;8.74;100.00;101422.25;5054567;28;20261;-72
2021/10/14 01:04:25;;;;;;;1.23;1.13;;;;;;;8.76;100.00;101426.34;5054296;28;20257;-73
2021/10/14 01:06:50;;;;;;;1.83;1.73;;;;;;;8.75;100.00;101418.44;5072152;28;20186;-72
2021/10/14 01:09:16;;;;;;;1.00;0.73;;;;;;;8.73;100.00;101416.00;5054336;28;20174;-72
2021/10/14 01:11:42;;;;;;;0.53;0.53;;;;;;;8.76;100.00;101422.81;5054155;28;20206;-72
2021/10/14 01:14:07;;;;;;;1.20;1.10;;;;;;;8.74;100.00;101419.53;5053370;28;20182;-72
2021/10/14 01:16:50;;;;;;;1.67;1.57;;;;;;;8.74;100.00;101417.63;5072016;28;20175;-73
2021/10/14 01:19:16;;;;;;;0.93;0.53;;;;;;;8.73;100.00;101415.19;5054005;28;20185;-72
2021/10/14 01:21:42;;;;;;;0.90;0.90;;;;;;;8.73;100.00;101413.28;5072048;28;20167;-72
2021/10/14 01:24:08;;;;;;;0.70;0.70;;;;;;;8.76;100.00;101411.91;5054274;28;20171;-72
2021/10/14 01:26:34;;;;;;;1.00;1.00;;;;;;;8.76;100.00;101460.94;5071730;28;20206;-72
2021/10/14 01:29:01;;;;;;;0.87;0.83;;;;;;;8.76;100.00;101406.47;5072046;28;20791;-72
2021/10/14 01:31:27;;;;;;;1.40;0.23;;;;;;;8.77;100.00;101400.72;5053871;28;20190;-72
2021/10/14 01:33:54;;;;;;;0.60;0.57;;;;;;;8.80;100.00;101402.09;5053774;28;20178;-72
2021/10/14 01:36:19;;;;;;;1.40;0.83;;;;;;;8.82;100.00;101408.88;5053745;28;20206;-72
2021/10/14 01:38:44;;;;;;;0.57;0.57;;;;;;;8.84;100.00;101404.00;5071683;28;20668;-72
2021/10/14 01:41:10;;;;;;;0.87;0.87;;;;;;;8.85;100.00;101404.81;5053574;28;20198;-72
2021/10/14 01:43:36;;;;;;;2.63;0.80;;;;;;;8.84;100.00;101395.00;5071423;28;20171;-73
2021/10/14 01:46:02;;;;;;;0.63;0.63;;;;;;;8.86;100.00;101398.25;5071510;28;20166;-72
2021/10/14 01:48:28;;;;;;;2.47;0.73;;;;;;;8.84;100.00;101404.00;5071513;28;20171;-72
2021/10/14 01:50:58;;;;;;;0.90;0.80;;;;;;;8.86;100.00;101393.63;5057927;28;20166;-72
2021/10/14 01:53:24;;;;;;;0.60;0.60;;;;;;;8.88;100.00;101396.06;5072743;28;20192;-72
2021/10/14 01:55:50;;;;;;;1.60;1.50;;;;;;;8.87;100.00;101392.53;5089199;28;20738;-71
2021/10/14 01:58:15;;;;;;;0.70;0.70;;;;;;;8.88;100.00;101388.72;5088508;28;20177;-72
2021/10/14 02:00:41;;;;;;;0.73;0.73;;;;;;;8.91;100.00;101390.88;5073252;28;20197;-72
2021/10/14 02:03:06;;;;;;;0.30;0.30;;;;;;;8.90;100.00;101386.53;5091395;28;20500;-72
2021/10/14 02:05:32;;;;;;;0.60;0.60;;;;;;;8.90;100.00;101383.00;5072896;28;20185;-72
2021/10/14 02:07:58;;;;;;;1.20;1.10;;;;;;;8.91;100.00;101399.06;5091441;28;20158;-72
2021/10/14 02:10:23;;;;;;;1.43;1.00;;;;;;;8.92;100.00;101392.50;5073113;28;20169;-72
2021/10/14 02:12:50;;;;;;;0.53;0.53;;;;;;;8.95;100.00;101393.88;5073461;28;20276;-72
2021/10/14 02:15:15;;;;;;;0.20;0.20;;;;;;;8.97;100.00;101388.13;5073044;28;20165;-72
2021/10/14 02:17:41;;;;;;;0.97;0.60;;;;;;;9.00;100.00;101396.59;5091254;28;20181;-72
2021/10/14 02:20:08;;;;;;;0.73;0.73;;;;;;;9.01;100.00;101394.69;5091204;28;20197;-72
2021/10/14 02:22:33;;;;;;;0.23;0.13;;;;;;;9.01;100.00;101391.97;5073082;28;20180;-72
2021/10/14 02:24:59;;;;;;;0.40;0.40;;;;;;;9.02;100.00;101388.13;5072737;28;20178;-72
2021/10/14 02:27:24;;;;;;;0.30;0.30;;;;;;;9.01;100.00;101381.06;5072220;28;20201;-72
2021/10/14 02:29:49;;;;;;;0.63;0.40;;;;;;;9.02;100.00;101385.41;5091101;28;20526;-72
2021/10/14 02:32:15;;;;;;;0.73;0.73;;;;;;;9.02;100.00;101388.94;5072983;28;20589;-72
2021/10/14 02:34:40;;;;;;;0.90;0.90;;;;;;;9.03;100.00;101387.03;5072742;28;20265;-72
2021/10/14 02:37:06;;;;;;;0.63;0.63;;;;;;;9.05;100.00;101391.13;5091244;28;20170;-72
2021/10/14 02:39:31;;;;;;;0.90;0.90;;;;;;;9.05;100.00;101385.66;5090935;28;20648;-72
2021/10/14 02:41:56;;;;;;;0.53;0.53;;;;;;;9.06;100.00;101391.94;5090959;28;20174;-72
2021/10/14 02:44:22;;;;;;;1.57;1.47;;;;;;;9.05;100.00;101382.94;5090829;28;20166;-72
2021/10/14 02:46:47;;;;;;;1.37;1.27;;;;;;;9.06;100.00;101383.75;5072844;28;20169;-72
2021/10/14 02:49:12;;;;;;;0.70;0.70;;;;;;;9.07;100.00;101385.38;5090927;28;20192;-72
2021/10/14 02:51:38;;;;;;;1.17;1.03;;;;;;;9.07;100.00;101379.94;5072588;28;20633;-72
2021/10/14 02:54:03;;;;;;;0.30;0.30;;;;;;;9.05;100.00;101391.13;5090663;28;20177;-72
2021/10/14 02:56:28;;;;;;;0.87;0.87;;;;;;;9.07;100.00;101386.19;5090751;28;20487;-72
2021/10/14 02:58:54;;;;;;;0.70;0.63;;;;;;;9.07;100.00;101385.38;5090744;28;20176;-72
2021/10/14 03:01:19;;;;;;;0.83;0.70;;;;;;;9.08;100.00;101382.38;5090721;28;20243;-72
2021/10/14 03:03:44;;;;;;;1.17;1.10;;;;;;;9.09;100.00;101388.66;5072800;28;20569;-72
2021/10/14 03:06:09;;;;;;;1.70;1.60;;;;;;;9.11;100.00;101394.63;5090657;28;20192;-72
2021/10/14 03:08:35;;;;;;;0.30;0.30;;;;;;;9.11;100.00;101391.91;5072595;28;20188;-72
2021/10/14 03:11:00;;;;;;;1.97;1.83;;;;;;;9.11;100.00;101394.63;5090725;28;20194;-72
2021/10/14 03:13:25;;;;;;;0.83;0.83;;;;;;;9.12;100.00;101396.28;5090624;28;20492;-72
2021/10/14 03:15:51;;;;;;;0.90;0.90;;;;;;;9.12;100.00;101397.09;5090564;28;20181;-72
2021/10/14 03:18:16;;;;;;;0.80;0.80;;;;;;;9.12;100.00;101397.09;5072491;28;20200;-72
2021/10/14 03:20:41;;;;;;;0.87;0.87;;;;;;;9.13;100.00;101401.47;5090509;28;20204;-72
2021/10/14 03:23:07;;;;;;;0.80;0.80;;;;;;;9.14;100.00;101391.38;5090520;28;20174;-71
2021/10/14 03:25:32;;;;;;;1.40;1.33;;;;;;;9.13;100.00;101393.28;5072335;28;20177;-72
2021/10/14 03:27:58;;;;;;;1.23;0.93;;;;;;;9.15;100.00;101382.09;5072341;28;20178;-72
2021/10/14 03:30:23;;;;;;;1.50;1.40;;;;;;;9.16;100.00;101391.91;5072364;28;20633;-72
2021/10/14 03:32:48;;;;;;;1.47;1.20;;;;;;;9.16;100.00;101394.63;5072411;28;20166;-72
2021/10/14 03:35:14;;;;;;;0.77;0.77;;;;;;;9.17;100.00;101385.34;5090197;28;20208;-72
2021/10/14 03:37:39;;;;;;;0.90;0.90;;;;;;;9.18;100.00;101382.34;5091652;28;20201;-72
2021/10/14 03:40:05;;;;;;;0.10;0.10;;;;;;;9.19;100.00;101386.69;5093825;28;20668;-72
2021/10/14 03:42:30;;;;;;;1.03;1.03;;;;;;;9.18;100.00;101384.25;5093585;28;20185;-72
2021/10/14 03:44:56;;;;;;;1.27;1.23;;;;;;;9.18;100.00;101376.91;5075183;28;20256;-72
2021/10/14 03:47:21;;;;;;;1.87;1.77;;;;;;;9.19;100.00;101377.72;5093501;28;20178;-72
2021/10/14 03:49:46;;;;;;;1.83;1.30;;;;;;;9.19;100.00;101378.53;5075419;28;20178;-72
2021/10/14 03:52:12;;;;;;;1.57;1.43;;;;;;;9.19;100.00;101375.78;5075039;28;20577;-72
2021/10/14 03:54:37;;;;;;;2.67;2.47;;;;;;;9.18;100.00;101373.34;5093201;28;20374;-72
2021/10/14 03:57:03;;;;;;;1.70;1.60;;;;;;;9.18;100.00;101381.53;5075216;28;20173;-72
2021/10/14 03:59:28;;;;;;;3.97;3.67;;;;;;;9.18;100.00;101382.34;5093182;28;20253;-72
2021/10/14 04:01:53;;;;;;;3.00;2.80;;;;;;;9.18;100.00;101376.06;5093284;28;20219;-73
2021/10/14 04:04:19;;;;;;;1.87;1.77;;;;;;;9.18;100.00;101384.25;5074916;28;20239;-72
2021/10/14 04:06:44;;;;;;;1.50;1.33;;;;;;;9.19;100.00;101385.88;5074979;28;20268;-72
2021/10/14 04:09:09;;;;;;;2.50;2.33;;;;;;;9.19;100.00;101385.88;5075153;28;20238;-72
2021/10/14 04:11:35;;;;;;;1.63;1.53;;;;;;;9.20;100.00;101377.44;5074920;28;20723;-72
2021/10/14 04:14:00;;;;;;;1.20;1.10;;;;;;;9.20;100.00;101379.34;5074615;28;20231;-72
2021/10/14 04:16:25;;;;;;;1.90;1.80;;;;;;;9.16;100.00;101384.53;5093076;28;20178;-72
2021/10/14 04:18:51;;;;;;;3.37;3.07;;;;;;;9.13;100.00;101368.75;5093056;28;20174;-72
2021/10/14 04:21:16;;;;;;;2.10;2.00;;;;;;;9.13;100.00;101374.19;5092943;28;20207;-72
2021/10/14 04:23:43;;;;;;;3.77;3.53;;;;;;;9.12;100.00;101374.47;5092776;28;20174;-72
2021/10/14 04:26:12;;;;;;;2.27;1.73;;;;;;;9.12;100.00;101375.28;5075641;28;20273;-72
2021/10/14 04:28:38;;;;;;;1.30;1.30;;;;;;;9.12;100.00;101374.47;5074530;28;20260;-72
2021/10/14 04:31:04;;;;;;;4.47;4.07;;;;;;;9.09;100.00;101369.56;5092834;28;20265;-72
2021/10/14 04:33:29;;;;;;;4.93;4.57;;;;;;;9.07;100.00;101380.75;5074592;28;20231;-72
2021/10/14 04:35:56;;;;;;;2.17;2.07;;;;;;;9.08;100.00;101367.94;5074321;28;20186;-72
2021/10/14 04:38:21;;;;;;;3.90;3.67;;;;;;;9.07;100.00;101369.84;5092649;28;20253;-72
2021/10/14 04:40:47;;;;;;;4.47;4.10;;;;;;;9.08;100.00;101370.66;5092637;28;20289;-72
2021/10/14 04:43:12;;;;;;;3.90;2.73;;;;;;;9.09;100.00;101367.66;5092477;28;20177;-72
2021/10/14 04:45:38;;;;;;;2.93;2.73;;;;;;;9.11;100.00;101370.09;5092287;28;20662;-71
2021/10/14 04:48:03;;;;;;;2.17;1.97;;;;;;;9.11;100.00;101381.84;5092753;28;20181;-72
2021/10/14 04:50:29;;;;;;;3.63;3.33;;;;;;;9.11;100.00;101370.94;5073435;28;20640;-72
2021/10/14 04:52:54;;;;;;;5.53;5.03;;;;;;;9.12;100.00;101364.38;5073977;28;20192;-72
2021/10/14 04:55:20;;;;;;;4.37;3.97;;;;;;;9.13;100.00;101370.66;5074345;28;20174;-72
2021/10/14 04:57:45;;;;;;;5.50;2.27;;;;;;;9.15;100.00;101373.91;5074629;28;20221;-72
2021/10/14 05:00:11;;;;;;;3.43;3.17;;;;;;;9.14;100.00;101378.56;5092628;28;20737;-72
2021/10/14 05:02:36;;;;;;;2.43;2.23;;;;;;;9.13;100.00;101373.38;5092587;28;20624;-72
2021/10/14 05:05:02;;;;;;;4.33;3.77;;;;;;;9.14;100.00;101375.00;5092706;28;20575;-72
2021/10/14 05:07:27;;;;;;;2.37;2.20;;;;;;;9.15;100.00;101377.47;5092417;28;20184;-71
2021/10/14 05:09:54;;;;;;;4.67;4.27;;;;;;;9.14;100.00;101378.56;5092446;28;20661;-72
2021/10/14 05:12:20;;;;;;;6.20;3.13;;;;;;;9.11;100.00;101381.84;5074275;28;20174;-72
2021/10/14 05:14:46;;;;;;;5.70;5.20;;;;;;;9.11;100.00;101381.84;5092075;28;20225;-71
2021/10/14 05:17:11;;;;;;;6.23;5.67;;;;;;;9.11;100.00;101390.03;5092091;28;20409;-72
2021/10/14 05:19:37;;;;;;;7.23;6.60;;;;;;;9.13;100.00;101389.75;5073887;28;20178;-72
2021/10/14 05:22:02;;;;;;;8.37;7.47;;;;;;;9.11;100.00;101390.03;5092196;28;20162;-71
2021/10/14 05:24:28;;;;;;;4.07;3.77;;;;;;;9.10;100.00;101380.19;5092021;28;20178;-72
2021/10/14 05:26:53;;;;;;;4.47;4.13;;;;;;;9.10;100.00;101385.63;5092465;28;20508;-72
2021/10/14 05:29:18;;;;;;;3.37;3.17;;;;;;;9.11;100.00;101384.56;5092166;28;20233;-72
2021/10/14 05:31:44;;;;;;;4.17;3.77;;;;;;;9.13;100.00;101389.75;5072563;28;20683;-71
2021/10/14 05:34:09;;;;;;;3.70;3.40;;;;;;;9.16;100.00;101391.91;5090100;28;20555;-72
2021/10/14 05:36:34;;;;;;;1.27;1.27;;;;;;;9.18;100.00;101392.44;5090322;28;20625;-72
2021/10/14 05:39:00;;;;;;;4.30;4.00;;;;;;;9.20;100.00;101392.97;5084001;28;20251;-71
2021/10/14 05:41:25;;;;;;;6.37;5.77;;;;;;;9.22;100.00;101393.50;5091951;28;20281;-72
2021/10/14 05:43:50;;;;;;;4.93;4.53;;;;;;;9.23;100.00;101384.22;5073893;28;20624;-72
2021/10/14 05:46:16;;;;;;;4.47;2.87;;;;;;;9.24;100.00;101394.84;5092301;28;20677;-72
2021/10/14 05:48:41;;;;;;;5.57;5.07;;;;;;;9.26;100.00;101391.88;5092320;28;20178;-72
2021/10/14 05:51:06;;;;;;;3.43;3.13;;;;;;;9.28;100.00;101395.13;5091931;28;20694;-71
2021/10/14 05:53:32;;;;;;;3.90;3.50;;;;;;;9.28;100.00;101395.13;5073818;28;20264;-72
2021/10/14 05:55:57;;;;;;;5.10;4.63;;;;;;;9.31;100.00;101391.84;5092049;28;20625;-69
2021/10/14 05:58:23;;;;;;;6.00;5.50;;;;;;;9.32;100.00;101390.75;5092021;28;20209;-72
2021/10/14 06:00:49;;;;;;;3.87;3.33;;;;;;;9.32;100.00;101396.19;5091755;28;20246;-72
2021/10/14 06:03:14;;;;;;;2.83;2.57;;;;;;;9.30;100.00;101392.94;5073708;28;20177;-72
2021/10/14 06:05:40;;;;;;;5.37;4.87;;;;;;;9.32;100.00;101398.94;5072926;28;20339;-74
2021/10/14 06:08:06;;;;;;;2.70;2.40;;;;;;;9.33;100.00;101389.66;5088594;28;20656;-74
2021/10/14 06:10:31;;;;;;;3.53;3.27;;;;;;;9.33;100.00;101397.81;5072382;28;20250;-73
2021/10/14 06:12:57;;;;;;;6.87;6.27;;;;;;;9.34;100.00;101402.19;5091376;28;20176;-74
2021/10/14 06:15:22;;;;;;;6.90;6.23;;;;;;;9.36;100.00;101400.00;5091129;28;20247;-74
2021/10/14 06:17:48;;;;;;;4.20;3.90;;;;;;;9.38;100.00;101402.44;5073192;28;20178;-74
2021/10/14 06:20:13;;;;;;;8.33;7.60;;;;;;;9.38;100.00;101403.25;5073003;28;20254;-74
2021/10/14 06:22:38;;;;;;;7.37;6.77;;;;;;;9.40;100.00;101402.97;5090556;28;20351;-73
2021/10/14 06:25:04;;;;;;;6.30;5.70;;;;;;;9.41;100.00;101402.72;5090467;28;20256;-74
2021/10/14 06:27:30;;;;;;;8.40;7.60;;;;;;;9.42;100.00;101392.63;5091104;28;20174;-74
2021/10/14 06:29:58;;;;;;;5.83;5.27;;;;;;;9.43;100.00;101395.06;5092314;28;20242;-74
2021/10/14 06:32:24;;;;;;;5.20;4.77;;;;;;;9.43;100.00;101381.41;5091073;28;20195;-74
2021/10/14 06:34:49;;;;;;;9.03;8.23;;;;;;;9.44;100.00;101377.59;5072584;28;20181;-74
2021/10/14 06:37:14;;;;;;;5.30;4.80;;;;;;;9.44;100.00;101372.16;5072773;28;20188;-74
2021/10/14 06:39:40;;;;;;;5.13;4.73;;;;;;;9.44;100.00;101369.41;5072729;28;20177;-73
2021/10/14 06:42:05;;;;;;;5.33;4.93;;;;;;;9.45;100.00;101368.31;5072655;28;20174;-73
2021/10/14 06:44:30;;;;;;;4.97;4.57;;;;;;;9.44;100.00;101358.50;5090882;28;20222;-73
2021/10/14 06:46:56;;;;;;;4.20;3.77;;;;;;;9.44;100.00;101363.16;5091015;28;20178;-74
2021/10/14 06:49:21;;;;;;;7.37;6.60;;;;;;;9.47;100.00;101366.13;5072835;28;20173;-74
2021/10/14 06:51:47;;;;;;;3.17;2.97;;;;;;;9.53;100.00;101383.25;5072701;28;20186;-73
2021/10/14 06:54:12;;;;;;;4.60;4.20;;;;;;;9.58;100.00;101374.25;5090897;28;20178;-81
2021/10/14 06:56:38;;;;;;;8.77;7.87;;;;;;;9.59;100.00;101373.97;5072860;28;20176;-79
2021/10/14 06:59:03;;;;;;;8.37;7.53;;;;;;;9.64;100.00;101375.84;5072635;28;20173;-76
2021/10/14 07:01:29;;;;;;;6.10;5.53;;;;;;;9.68;100.00;101374.19;5090447;28;20551;-77
2021/10/14 07:03:54;;;;;;;3.33;2.57;;;;;;;9.67;100.00;101365.16;5090672;28;20264;-75
2021/10/14 07:06:20;;;;;;;9.30;8.37;;;;;;;9.69;100.00;101371.19;5072035;28;20174;-75
2021/10/14 07:08:45;;;;;;;5.13;4.73;;;;;;;9.73;100.00;101372.25;5072358;28;20196;-76
2021/10/14 07:11:10;;;;;;;9.97;8.80;;;;;;;9.76;100.00;101362.66;5072151;28;20181;-76
2021/10/14 07:13:37;;;;;;;12.80;10.77;;;;;;;9.76;100.00;101377.13;5093656;28;20170;-75
2021/10/14 07:16:03;;;;;;;11.23;10.10;;;;;;;9.80;100.00;101372.72;5076938;28;20184;-84
2021/10/14 07:18:28;;;;;;;15.07;10.97;;;;;;;9.81;100.00;101370.81;5094747;28;20640;-73
2021/10/14 07:20:54;;;;;;;6.03;5.63;;;;;;;9.84;100.00;101370.28;5094546;28;20292;-73
2021/10/14 07:23:19;;;;;;;7.70;6.53;;;;;;;9.82;100.00;101375.19;5076362;28;20273;-73
2021/10/14 07:25:45;;;;;;;10.27;9.37;;;;;;;9.82;100.00;101365.06;5076189;28;20186;-74
2021/10/14 07:28:11;;;;;;;3.23;3.03;;;;;;;9.86;100.00;101372.72;5076258;28;20185;-74
2021/10/14 07:30:39;;;;;;;3.67;2.83;;;;;;;9.86;100.00;101365.34;5076571;28;20640;-73
2021/10/14 07:33:04;;;;;;;7.40;6.73;;;;;;;9.91;100.00;101370.75;5094330;28;20643;-74
2021/10/14 07:35:35;;;;;;;8.30;6.53;;;;;;;9.92;100.00;101369.66;5090253;28;20176;-74
2021/10/14 07:38:03;;;;;;;3.03;2.83;;;;;;;9.96;100.00;101361.69;5094518;28;20229;-73
2021/10/14 07:40:29;;;;;;;4.27;3.87;;;;;;;9.97;100.00;101375.06;5078018;28;20206;-74
2021/10/14 07:42:55;;;;;;;3.50;3.20;;;;;;;9.98;100.00;101364.97;5094092;28;20243;-71
2021/10/14 07:45:20;;;;;;;7.63;6.93;;;;;;;10.00;100.00;101374.53;5076069;28;20624;-73
2021/10/14 07:47:46;;;;;;;9.27;7.20;;;;;;;10.03;100.00;101376.69;5094254;28;20186;-73
2021/10/14 07:50:12;;;;;;;6.60;3.23;;;;;;;10.08;100.00;101375.81;5075777;28;20323;-73
2021/10/14 07:52:38;;;;;;;2.47;2.37;;;;;;;10.10;100.00;101381.78;5093639;28;20173;-73
2021/10/14 07:55:04;;;;;;;5.10;4.73;;;;;;;10.16;100.00;101379.84;5093798;28;20260;-73
2021/10/14 07:57:30;;;;;;;2.77;1.57;;;;;;;10.16;100.00;101382.59;5093778;28;20260;-73
2021/10/14 07:59:55;;;;;;;6.27;5.67;;;;;;;10.21;100.00;101383.38;5093759;28;20292;-73
2021/10/14 08:02:20;;;;;;;9.90;8.93;;;;;;;10.24;100.00;101387.44;5075515;28;20221;-73
2021/10/14 08:04:48;;;;;;;6.87;5.63;;;;;;;10.26;100.00;101383.34;5093527;28;20216;-73
2021/10/14 08:07:13;;;;;;;3.50;3.20;;;;;;;10.25;100.00;101389.91;5094055;28;20562;-73
2021/10/14 08:09:38;;;;;;;4.57;4.20;;;;;;;10.23;100.00;101381.19;5075388;28;20170;-73
2021/10/14 08:12:04;;;;;;;6.07;3.97;;;;;;;10.27;100.00;101375.94;5093715;28;20586;-73
2021/10/14 08:14:29;;;;;;;6.10;5.53;;;;;;;10.33;100.00;101372.91;5075164;28;20470;-73
2021/10/14 08:16:55;;;;;;;4.03;3.73;;;;;;;10.35;100.00;101370.69;5075343;28;20178;-74
2021/10/14 08:19:20;;;;;;;5.93;5.37;;;;;;;10.37;100.00;101371.22;5075328;28;20181;-74
2021/10/14 08:21:46;;;;;;;8.97;6.67;;;;;;;10.47;100.00;101380.44;5093328;28;20619;-73
2021/10/14 08:24:11;;;;;;;8.17;7.23;;;;;;;10.54;100.00;101375.44;5091818;28;20174;-72
2021/10/14 08:26:36;;;;;;;5.07;4.67;;;;;;;10.52;100.00;101370.25;5093238;28;20178;-72
2021/10/14 08:29:02;;;;;;;3.40;3.20;;;;;;;10.51;100.00;101374.09;5075012;28;20177;-72
2021/10/14 08:31:27;;;;;;;3.77;3.13;;;;;;;10.50;100.00;101369.75;5093264;28;20186;-72
2021/10/14 08:33:52;;;;;;;5.00;4.60;;;;;;;10.50;100.00;101386.13;5092821;28;20209;-72
2021/10/14 08:36:18;;;;;;;7.93;7.13;;;;;;;10.56;100.00;101390.47;5092965;28;20553;-72
2021/10/14 08:38:44;;;;;;;8.13;5.80;;;;;;;10.59;100.00;101381.69;5093163;28;20247;-72
2021/10/14 08:41:10;;;;;;;8.47;7.67;;;;;;;10.59;100.00;101378.94;5092972;28;20656;-72
2021/10/14 08:43:36;;;;;;;9.17;7.07;;;;;;;10.63;100.00;101381.91;5074735;28;20612;-72
2021/10/14 08:46:02;;;;;;;2.87;2.67;;;;;;;10.61;100.00;101384.94;5092955;28;20166;-72
2021/10/14 08:48:29;;;;;;;4.97;4.53;;;;;;;10.57;100.00;101381.16;5093189;28;20197;-72
2021/10/14 08:50:54;;;;;;;7.60;5.63;;;;;;;10.59;100.00;101392.63;5092831;28;20185;-71
2021/10/14 08:53:19;;;;;;;6.30;5.67;;;;;;;10.55;100.00;101388.81;5074238;28;20178;-73
2021/10/14 08:55:45;;;;;;;4.40;4.07;;;;;;;10.54;100.00;101402.75;5074440;28;20181;-72
2021/10/14 08:58:12;;;;;;;6.70;6.17;;;;;;;10.50;100.00;101397.06;5092710;28;20170;-72
2021/10/14 09:00:40;;;;;;;4.63;4.23;;;;;;;10.50;100.00;101396.25;5092336;28;20522;-73
2021/10/14 09:03:25;;;;;;;8.27;6.37;;;;;;;10.51;100.00;101401.44;5092619;28;20169;-72
2021/10/14 09:05:51;;;;;;;7.90;7.17;;;;;;;10.52;100.00;101388.56;5073893;28;20196;-72
2021/10/14 09:08:32;;;;;;;8.70;7.93;;;;;;;10.52;100.00;101389.38;5074418;28;20174;-72
2021/10/14 09:11:14;;;;;;;3.40;3.10;;;;;;;10.51;100.00;101392.41;5074553;28;20177;-72
2021/10/14 09:13:52;;;;;;;4.77;4.37;;;;;;;10.47;100.00;101394.09;5073974;28;20363;-72
2021/10/14 09:16:37;;;;;;;5.33;4.83;;;;;;;10.43;100.00;101385.66;5092369;28;20612;-72
2021/10/14 09:19:18;;;;;;;2.33;2.13;;;;;;;10.45;100.00;101386.19;5091713;28;20660;-72
2021/10/14 09:21:57;;;;;;;6.20;5.63;;;;;;;10.40;100.00;101386.22;5073759;28;20644;-72
2021/10/14 09:24:31;;;;;;;5.43;4.93;;;;;;;10.38;100.00;101382.97;5091711;28;20201;-72
2021/10/14 09:26:59;;;;;;;1.83;1.53;;;;;;;10.43;100.00;101385.66;5073729;28;20177;-72
2021/10/14 09:29:28;;;;;;;5.47;4.53;;;;;;;10.39;100.00;101384.59;5073494;28;20177;-72
2021/10/14 09:32:06;;;;;;;1.07;1.07;;;;;;;10.35;100.00;101373.44;5073422;28;20632;-72
2021/10/14 09:34:35;;;;;;;2.83;2.53;;;;;;;10.31;100.00;101382.50;5091049;28;20182;-72
2021/10/14 09:37:04;;;;;;;1.63;1.53;;;;;;;10.33;100.00;101383.03;5091414;28;20265;-72
2021/10/14 09:39:30;;;;;;;3.80;3.50;;;;;;;10.30;100.00;101381.69;5091523;28;20201;-72
2021/10/14 09:41:58;;;;;;;2.30;2.20;;;;;;;10.31;100.00;101380.56;5091402;28;20581;-72
2021/10/14 09:44:23;;;;;;;1.90;1.80;;;;;;;10.30;100.00;101373.47;5091270;28;20174;-72
2021/10/14 09:46:57;;;;;;;2.20;2.07;;;;;;;10.31;100.00;101374.31;5073248;28;20180;-71
2021/10/14 09:49:28;;;;;;;2.43;2.23;;;;;;;10.34;100.00;101376.44;5091680;28;20169;-72
2021/10/14 09:51:56;;;;;;;2.47;2.27;;;;;;;10.37;100.00;101392.25;5090891;28;20624;-72
2021/10/14 09:54:22;;;;;;;0.60;0.57;;;;;;;10.39;100.00;101381.84;5091013;28;20249;-72
2021/10/14 09:56:48;;;;;;;3.63;3.33;;;;;;;10.42;100.00;101384.03;5091294;28;20181;-72
2021/10/14 09:59:13;;;;;;;1.57;1.40;;;;;;;10.49;100.00;101386.44;5091157;28;20391;-72
2021/10/14 10:01:41;;;;;;;1.47;1.37;;;;;;;10.54;100.00;101368.06;5091062;28;20197;-72
2021/10/14 10:04:07;;;;;;;2.43;2.20;;;;;;;10.65;100.00;101382.44;5090825;28;20174;-72
2021/10/14 10:06:35;;;;;;;2.00;1.13;;;;;;;10.77;100.00;101382.06;5072694;28;20188;-72
2021/10/14 10:09:15;;;;;;;1.20;1.10;;;;;;;10.80;100.00;101385.00;5091062;28;20632;-72
2021/10/14 10:11:45;;;;;;;1.00;1.00;;;;;;;10.87;100.00;101390.97;5091084;28;20576;-72
2021/10/14 10:14:11;;;;;;;3.97;3.60;;;;;;;10.89;100.00;101383.28;5091161;28;20178;-72
2021/10/14 10:16:37;;;;;;;2.90;2.70;;;;;;;10.93;100.00;101391.72;5073128;28;20470;-72
2021/10/14 10:19:06;;;;;;;3.10;2.63;;;;;;;10.99;100.00;101385.06;5090812;28;20178;-72
2021/10/14 10:21:31;;;;;;;4.50;2.37;;;;;;;11.08;100.00;101388.81;5090617;28;20263;-72
2021/10/14 10:24:07;;;;;;;2.60;2.40;;;;;;;11.17;100.00;101384.34;5090836;28;20173;-72
2021/10/14 10:26:32;;;;;;;2.40;2.10;;;;;;;11.28;100.00;101380.38;5091110;28;20178;-72
2021/10/14 10:29:18;;;;;;;2.13;1.77;;;;;;;11.42;100.00;101391.38;5091095;28;20181;-73
2021/10/14 10:31:56;;;;;;;2.97;2.77;;;;;;;11.48;100.00;101395.69;5054975;28;20196;-72
2021/10/14 10:37:28;;;;;;;1.97;1.83;;;;;;;11.49;100.00;101400.06;5091391;28;20170;-72
2021/10/14 10:40:01;;;;;;;2.80;2.53;;;;;;;11.51;100.00;101394.28;5090969;28;20166;-72
2021/10/14 10:42:31;;;;;;;2.00;1.90;;;;;;;11.49;100.00;101382.81;5091194;28;20210;-72
2021/10/14 10:45:43;;;;;;;5.67;5.17;;;;;;;11.51;100.00;101384.16;5090879;28;20536;-72
2021/10/14 10:48:09;;;;;;;1.57;1.57;;;;;;;11.52;100.00;101372.09;5052775;28;20209;-72
2021/10/14 10:50:47;;;;;;;1.73;1.63;;;;;;;11.56;100.00;101375.88;5072831;28;20603;-72
2021/10/14 10:53:35;;;;;;;2.07;1.97;;;;;;;11.53;100.00;101370.97;5090741;28;20230;-71
2021/10/14 10:56:01;;;;;;;7.40;2.83;;;;;;;11.53;100.00;101370.97;5079571;28;20186;-73
2021/10/14 10:58:29;;;;;;;7.93;2.87;;;;;;;11.55;100.00;101371.50;5090815;28;20174;-73
2021/10/14 11:00:54;;;;;;;6.13;5.60;;;;;;;11.56;100.00;101366.84;5090658;28;20204;-73
2021/10/14 11:03:25;;;;;;;4.07;3.70;;;;;;;11.61;100.00;101366.78;5072968;28;20268;-73
2021/10/14 11:05:56;;;;;;;6.83;5.23;;;;;;;11.67;100.00;101359.31;5072405;28;20753;-73
2021/10/14 11:08:27;;;;;;;1.50;1.40;;;;;;;11.65;100.00;101359.59;5090612;28;20174;-73
2021/10/14 11:11:15;;;;;;;2.13;2.00;;;;;;;11.63;100.00;101354.44;5072027;28;20178;-73
2021/10/14 11:13:43;;;;;;;3.27;2.10;;;;;;;11.64;100.00;101355.25;5089994;28;20177;-73
2021/10/14 11:16:11;;;;;;;4.47;3.73;;;;;;;11.70;100.00;101342.28;5071813;28;20268;-73
2021/10/14 11:18:38;;;;;;;2.37;2.20;;;;;;;11.75;100.00;101337.56;5090415;28;20166;-73
2021/10/14 11:21:06;;;;;;;3.93;3.63;;;;;;;11.80;100.00;101342.97;5089898;28;20539;-73
2021/10/14 11:23:39;;;;;;;4.27;3.87;;;;;;;11.78;100.00;101327.94;5087309;28;20189;-72